sensor_id;sensor_type;location;lat;lon;timestamp;P1;durP1;ratioP1;P2;durP2;ratioP2
73421;SDS011;61637;47.760;-122.022;2023-07-20T00:00:01;5.8;;;2.0;;
73421;SDS011;61637;47.760;-122.022;2023-07-20T00:02:01;6.6;;;2.1;;
73421;SDS011;61637;47.760;-122.022;2023-07-20T00:04:01;7.5;;;2.3;;
73421;SDS011;61637;47.760;-122.022;2023-07-20T00:06:01;unavailable;;;unavailable;;
73421;SDS011;61637;47.760;-122.022;2023-07-20T00:08:01;6.1;;;2.2;;
73421;SDS011;61637;47.760;-122.022;2023-07-20T00:10:01;7.5;;;2.5;;
73421;SDS011;61637;47.760;-122.022;2023-07-20T00:12:01;6.6;;;2.2;;
73421;SDS011;61637;47.760;-122.022;2023-07-20T00:14:01;7.4;;;2.4;;
73421;SDS011;61637;47.760;-122.022;2023-07-20T00:16:01;6.1;;;2.2;;
73421;SDS011;61637;47.760;-122.022;2023-07-20T00:18:01;6.1;;;2.1;;
73421;SDS011;61637;47.760;-122.022;2023-07-20T00:20:01;6.0;;;2.2;;
73421;SDS011;61637;47.760;-122.022;2023-07-20T00:22:01;8.1;;;2.3;;
73421;SDS011;61637;47.760;-122.022;2023-07-20T00:24:01;8.4;;;2.5;;
73421;SDS011;61637;47.760;-122.022;2023-07-20T00:26:01;6.1;;;2.3;;
73421;SDS011;61637;47.760;-122.022;2023-07-20T00:28:01;6.3;;;2.0;;
73421;SDS011;61637;47.760;-122.022;2023-07-20T00:30:01;8.9;;;2.5;;
73421;SDS011;61637;47.760;-122.022;2023-07-20T00:32:01;7.4;;;2.5;;
73421;SDS011;61637;47.760;-122.022;2023-07-20T00:34:01;7.8;;;2.4;;
73421;SDS011;61637;47.760;-122.022;2023-07-20T00:36:01;5.6;;;2.4;;
73421;SDS011;61637;47.760;-122.022;2023-07-20T00:38:01;6.0;;;2.5;;
73421;SDS011;61637;47.760;-122.022;2023-07-20T00:40:01;7.2;;;2.3;;
73421;SDS011;61637;47.760;-122.022;2023-07-20T00:42:01;5.4;;;2.4;;
73421;SDS011;61637;47.760;-122.022;2023-07-20T00:44:01;9.7;;;2.5;;
73421;SDS011;61637;47.760;-122.022;2023-07-20T00:46:01;7.1;;;2.5;;
73421;SDS011;61637;47.760;-122.022;2023-07-20T00:48:01;8.4;;;2.6;;
73421;SDS011;61637;47.760;-122.022;2023-07-20T00:50:02;7.8;;;2.6;;
73421;SDS011;61637;47.760;-122.022;2023-07-20T00:52:01;7.7;;;2.6;;
73421;SDS011;61637;47.760;-122.022;2023-07-20T00:54:01;6.0;;;2.2;;
73421;SDS011;61637;47.760;-122.022;2023-07-20T00:56:01;7.6;;;2.6;;
73421;SDS011;61637;47.760;-122.022;2023-07-20T00:58:01;10.1;;;2.8;;
73421;SDS011;61637;47.760;-122.022;2023-07-20T01:00:01;6.8;;;2.4;;
73421;SDS011;61637;47.760;-122.022;2023-07-20T01:02:01;6.2;;;2.6;;
73421;SDS011;61637;47.760;-122.022;2023-07-20T01:04:01;7.8;;;2.7;;
73421;SDS011;61637;47.760;-122.022;2023-07-20T01:06:05;7.0;;;2.7;;
73421;SDS011;61637;47.760;-122.022;2023-07-20T01:08:07;7.6;;;2.6;;
73421;SDS011;61637;47.760;-122.022;2023-07-20T01:10:08;7.5;;;2.4;;
73421;SDS011;61637;47.760;-122.022;2023-07-20T01:12:05;7.8;;;2.6;;
73421;SDS011;61637;47.760;-122.022;2023-07-20T01:14:01;7.0;;;2.9;;
73421;SDS011;61637;47.760;-122.022;2023-07-20T01:16:01;6.9;;;2.8;;
73421;SDS011;61637;47.760;-122.022;2023-07-20T01:18:01;8.5;;;2.8;;
73421;SDS011;61637;47.760;-122.022;2023-07-20T01:20:01;8.6;;;2.7;;
73421;SDS011;61637;47.760;-122.022;2023-07-20T01:22:07;8.2;;;3.0;;
73421;SDS011;61637;47.760;-122.022;2023-07-20T01:26:19;7.7;;;3.0;;
73421;SDS011;61637;47.760;-122.022;2023-07-20T01:28:21;8.0;;;2.8;;
73421;SDS011;61637;47.760;-122.022;2023-07-20T01:30:16;8.8;;;3.0;;
73421;SDS011;61637;47.760;-122.022;2023-07-20T01:32:02;6.7;;;3.0;;
73421;SDS011;61637;47.760;-122.022;2023-07-20T01:34:10;8.2;;;3.0;;
73421;SDS011;61637;47.760;-122.022;2023-07-20T01:36:02;8.2;;;3.1;;
73421;SDS011;61637;47.760;-122.022;2023-07-20T01:38:01;7.5;;;3.0;;
73421;SDS011;61637;47.760;-122.022;2023-07-20T01:40:02;8.2;;;2.8;;
73421;SDS011;61637;47.760;-122.022;2023-07-20T01:42:01;11.1;;;3.0;;
73421;SDS011;61637;47.760;-122.022;2023-07-20T01:44:04;8.3;;;3.1;;
73421;SDS011;61637;47.760;-122.022;2023-07-20T01:46:01;8.0;;;2.8;;
73421;SDS011;61637;47.760;-122.022;2023-07-20T01:48:01;11.0;;;3.0;;
73421;SDS011;61637;47.760;-122.022;2023-07-20T01:50:01;8.6;;;3.0;;
73421;SDS011;61637;47.760;-122.022;2023-07-20T01:52:01;9.2;;;3.0;;
73421;SDS011;61637;47.760;-122.022;2023-07-20T01:54:01;9.1;;;3.0;;
73421;SDS011;61637;47.760;-122.022;2023-07-20T01:56:00;7.8;;;3.2;;
73421;SDS011;61637;47.760;-122.022;2023-07-20T01:58:01;7.8;;;3.0;;
73421;SDS011;61637;47.760;-122.022;2023-07-20T02:00:02;9.9;;;3.4;;
73421;SDS011;61637;47.760;-122.022;2023-07-20T02:02:01;8.2;;;3.3;;
73421;SDS011;61637;47.760;-122.022;2023-07-20T02:04:01;9.2;;;3.1;;
73421;SDS011;61637;47.760;-122.022;2023-07-20T02:06:01;10.4;;;3.3;;
73421;SDS011;61637;47.760;-122.022;2023-07-20T02:08:02;9.6;;;3.4;;
73421;SDS011;61637;47.760;-122.022;2023-07-20T02:10:01;9.1;;;3.1;;
73421;SDS011;61637;47.760;-122.022;2023-07-20T02:12:00;12.4;;;3.3;;
73421;SDS011;61637;47.760;-122.022;2023-07-20T02:14:01;7.3;;;3.4;;
73421;SDS011;61637;47.760;-122.022;2023-07-20T02:16:01;8.4;;;3.3;;
73421;SDS011;61637;47.760;-122.022;2023-07-20T02:18:00;9.4;;;3.4;;
73421;SDS011;61637;47.760;-122.022;2023-07-20T02:20:01;7.8;;;3.3;;
73421;SDS011;61637;47.760;-122.022;2023-07-20T02:22:01;12.4;;;3.3;;
73421;SDS011;61637;47.760;-122.022;2023-07-20T02:24:01;8.3;;;3.3;;
73421;SDS011;61637;47.760;-122.022;2023-07-20T02:26:00;10.2;;;3.5;;
73421;SDS011;61637;47.760;-122.022;2023-07-20T02:28:01;8.3;;;3.3;;
73421;SDS011;61637;47.760;-122.022;2023-07-20T02:30:02;11.1;;;3.4;;
73421;SDS011;61637;47.760;-122.022;2023-07-20T02:32:01;8.0;;;3.4;;
73421;SDS011;61637;47.760;-122.022;2023-07-20T02:34:01;10.3;;;3.4;;
73421;SDS011;61637;47.760;-122.022;2023-07-20T02:36:01;8.6;;;3.3;;
73421;SDS011;61637;47.760;-122.022;2023-07-20T02:38:01;10.6;;;3.5;;
73421;SDS011;61637;47.760;-122.022;2023-07-20T02:40:01;12.3;;;3.7;;
73421;SDS011;61637;47.760;-122.022;2023-07-20T02:42:00;7.7;;;3.5;;
73421;SDS011;61637;47.760;-122.022;2023-07-20T02:44:01;9.2;;;3.5;;
73421;SDS011;61637;47.760;-122.022;2023-07-20T02:46:01;8.9;;;3.7;;
73421;SDS011;61637;47.760;-122.022;2023-07-20T02:48:01;9.0;;;3.5;;
73421;SDS011;61637;47.760;-122.022;2023-07-20T02:50:01;9.2;;;3.3;;
73421;SDS011;61637;47.760;-122.022;2023-07-20T02:52:01;9.0;;;3.5;;
73421;SDS011;61637;47.760;-122.022;2023-07-20T02:54:01;8.2;;;3.4;;
73421;SDS011;61637;47.760;-122.022;2023-07-20T02:56:01;11.0;;;3.5;;
73421;SDS011;61637;47.760;-122.022;2023-07-20T02:58:01;9.9;;;3.6;;
73421;SDS011;61637;47.760;-122.022;2023-07-20T03:00:01;9.4;;;3.4;;
73421;SDS011;61637;47.760;-122.022;2023-07-20T03:02:01;9.4;;;3.4;;
73421;SDS011;61637;47.760;-122.022;2023-07-20T03:04:01;10.2;;;3.5;;
73421;SDS011;61637;47.760;-122.022;2023-07-20T03:06:01;11.9;;;3.5;;
73421;SDS011;61637;47.760;-122.022;2023-07-20T03:08:01;9.7;;;3.3;;
73421;SDS011;61637;47.760;-122.022;2023-07-20T03:10:01;7.4;;;3.5;;
73421;SDS011;61637;47.760;-122.022;2023-07-20T03:12:01;7.9;;;3.3;;
73421;SDS011;61637;47.760;-122.022;2023-07-20T03:14:01;7.6;;;3.3;;
73421;SDS011;61637;47.760;-122.022;2023-07-20T03:16:01;7.6;;;3.1;;
73421;SDS011;61637;47.760;-122.022;2023-07-20T03:18:01;10.3;;;3.4;;
73421;SDS011;61637;47.760;-122.022;2023-07-20T03:20:01;10.4;;;3.4;;
73421;SDS011;61637;47.760;-122.022;2023-07-20T03:22:01;10.2;;;3.2;;
73421;SDS011;61637;47.760;-122.022;2023-07-20T03:24:01;8.4;;;3.4;;
73421;SDS011;61637;47.760;-122.022;2023-07-20T03:26:01;9.5;;;2.9;;
73421;SDS011;61637;47.760;-122.022;2023-07-20T03:28:01;12.5;;;3.1;;
73421;SDS011;61637;47.760;-122.022;2023-07-20T03:30:01;7.1;;;3.0;;
73421;SDS011;61637;47.760;-122.022;2023-07-20T03:32:01;8.5;;;3.0;;
73421;SDS011;61637;47.760;-122.022;2023-07-20T03:34:01;12.2;;;3.1;;
73421;SDS011;61637;47.760;-122.022;2023-07-20T03:36:01;10.3;;;3.0;;
73421;SDS011;61637;47.760;-122.022;2023-07-20T03:38:01;7.8;;;2.9;;
73421;SDS011;61637;47.760;-122.022;2023-07-20T03:40:01;8.2;;;2.9;;
73421;SDS011;61637;47.760;-122.022;2023-07-20T03:42:01;11.4;;;2.8;;
73421;SDS011;61637;47.760;-122.022;2023-07-20T03:44:01;10.0;;;3.0;;
73421;SDS011;61637;47.760;-122.022;2023-07-20T03:46:01;9.2;;;3.0;;
73421;SDS011;61637;47.760;-122.022;2023-07-20T03:48:01;10.0;;;2.8;;
73421;SDS011;61637;47.760;-122.022;2023-07-20T03:50:01;9.1;;;3.0;;
73421;SDS011;61637;47.760;-122.022;2023-07-20T03:52:01;9.2;;;2.9;;
73421;SDS011;61637;47.760;-122.022;2023-07-20T03:54:01;10.3;;;2.7;;
73421;SDS011;61637;47.760;-122.022;2023-07-20T03:56:01;6.7;;;2.5;;
73421;SDS011;61637;47.760;-122.022;2023-07-20T03:58:01;7.3;;;2.6;;
73421;SDS011;61637;47.760;-122.022;2023-07-20T04:00:01;6.8;;;2.3;;
73421;SDS011;61637;47.760;-122.022;2023-07-20T04:02:01;9.5;;;2.6;;
73421;SDS011;61637;47.760;-122.022;2023-07-20T04:04:01;8.7;;;2.7;;
73421;SDS011;61637;47.760;-122.022;2023-07-20T04:06:01;9.4;;;2.6;;
73421;SDS011;61637;47.760;-122.022;2023-07-20T04:08:01;8.0;;;2.4;;
73421;SDS011;61637;47.760;-122.022;2023-07-20T04:10:01;8.1;;;2.5;;
73421;SDS011;61637;47.760;-122.022;2023-07-20T04:12:01;8.6;;;2.5;;
73421;SDS011;61637;47.760;-122.022;2023-07-20T04:14:01;9.2;;;2.6;;
73421;SDS011;61637;47.760;-122.022;2023-07-20T04:16:01;8.5;;;2.2;;
73421;SDS011;61637;47.760;-122.022;2023-07-20T04:18:01;8.4;;;2.3;;
73421;SDS011;61637;47.760;-122.022;2023-07-20T04:20:01;8.0;;;2.5;;
73421;SDS011;61637;47.760;-122.022;2023-07-20T04:22:01;12.9;;;2.6;;
73421;SDS011;61637;47.760;-122.022;2023-07-20T04:24:01;7.5;;;2.4;;
73421;SDS011;61637;47.760;-122.022;2023-07-20T04:26:01;7.3;;;2.2;;
73421;SDS011;61637;47.760;-122.022;2023-07-20T04:28:01;7.5;;;2.2;;
73421;SDS011;61637;47.760;-122.022;2023-07-20T04:30:01;11.0;;;2.2;;
73421;SDS011;61637;47.760;-122.022;2023-07-20T04:32:01;9.9;;;2.3;;
73421;SDS011;61637;47.760;-122.022;2023-07-20T04:34:01;6.9;;;2.2;;
73421;SDS011;61637;47.760;-122.022;2023-07-20T04:36:00;8.5;;;2.4;;
73421;SDS011;61637;47.760;-122.022;2023-07-20T04:38:00;8.6;;;2.2;;
73421;SDS011;61637;47.760;-122.022;2023-07-20T04:40:01;8.6;;;2.2;;
73421;SDS011;61637;47.760;-122.022;2023-07-20T04:42:01;8.9;;;2.1;;
73421;SDS011;61637;47.760;-122.022;2023-07-20T04:44:01;8.2;;;2.1;;
73421;SDS011;61637;47.760;-122.022;2023-07-20T04:46:01;8.0;;;2.3;;
73421;SDS011;61637;47.760;-122.022;2023-07-20T04:48:01;7.9;;;2.0;;
73421;SDS011;61637;47.760;-122.022;2023-07-20T04:50:01;7.3;;;1.9;;
73421;SDS011;61637;47.760;-122.022;2023-07-20T04:52:02;8.8;;;2.0;;
73421;SDS011;61637;47.760;-122.022;2023-07-20T04:54:01;8.0;;;1.8;;
73421;SDS011;61637;47.760;-122.022;2023-07-20T04:56:01;7.1;;;1.8;;
73421;SDS011;61637;47.760;-122.022;2023-07-20T04:58:01;6.9;;;1.9;;
73421;SDS011;61637;47.760;-122.022;2023-07-20T05:00:01;8.9;;;2.0;;
73421;SDS011;61637;47.760;-122.022;2023-07-20T05:02:01;8.3;;;1.8;;
73421;SDS011;61637;47.760;-122.022;2023-07-20T05:04:01;7.3;;;1.8;;
73421;SDS011;61637;47.760;-122.022;2023-07-20T05:06:01;7.4;;;1.8;;
73421;SDS011;61637;47.760;-122.022;2023-07-20T05:08:01;6.3;;;1.8;;
73421;SDS011;61637;47.760;-122.022;2023-07-20T05:10:01;6.4;;;1.5;;
73421;SDS011;61637;47.760;-122.022;2023-07-20T05:12:00;6.5;;;1.7;;
73421;SDS011;61637;47.760;-122.022;2023-07-20T05:14:01;5.4;;;1.4;;
73421;SDS011;61637;47.760;-122.022;2023-07-20T05:16:01;4.4;;;1.5;;
73421;SDS011;61637;47.760;-122.022;2023-07-20T05:18:00;5.8;;;1.5;;
73421;SDS011;61637;47.760;-122.022;2023-07-20T05:20:01;4.9;;;1.6;;
73421;SDS011;61637;47.760;-122.022;2023-07-20T05:22:01;6.0;;;1.5;;
73421;SDS011;61637;47.760;-122.022;2023-07-20T05:24:01;6.6;;;1.5;;
73421;SDS011;61637;47.760;-122.022;2023-07-20T05:26:01;5.6;;;1.5;;
73421;SDS011;61637;47.760;-122.022;2023-07-20T05:28:01;5.9;;;1.5;;
73421;SDS011;61637;47.760;-122.022;2023-07-20T05:30:01;6.2;;;1.4;;
73421;SDS011;61637;47.760;-122.022;2023-07-20T05:32:00;6.5;;;1.5;;
73421;SDS011;61637;47.760;-122.022;2023-07-20T05:34:01;4.1;;;1.2;;
73421;SDS011;61637;47.760;-122.022;2023-07-20T05:36:00;6.4;;;1.6;;
73421;SDS011;61637;47.760;-122.022;2023-07-20T05:38:01;6.1;;;1.5;;
73421;SDS011;61637;47.760;-122.022;2023-07-20T05:40:01;5.2;;;1.5;;
73421;SDS011;61637;47.760;-122.022;2023-07-20T05:42:01;5.4;;;1.5;;
73421;SDS011;61637;47.760;-122.022;2023-07-20T05:44:01;5.4;;;1.5;;
73421;SDS011;61637;47.760;-122.022;2023-07-20T05:46:01;6.9;;;1.4;;
73421;SDS011;61637;47.760;-122.022;2023-07-20T05:48:01;8.1;;;1.7;;
73421;SDS011;61637;47.760;-122.022;2023-07-20T05:50:01;6.6;;;1.6;;
73421;SDS011;61637;47.760;-122.022;2023-07-20T05:52:01;5.6;;;1.4;;
73421;SDS011;61637;47.760;-122.022;2023-07-20T05:54:01;7.1;;;1.6;;
73421;SDS011;61637;47.760;-122.022;2023-07-20T05:56:01;7.8;;;1.4;;
73421;SDS011;61637;47.760;-122.022;2023-07-20T05:58:01;6.3;;;1.5;;
73421;SDS011;61637;47.760;-122.022;2023-07-20T06:00:02;5.8;;;1.5;;
73421;SDS011;61637;47.760;-122.022;2023-07-20T06:02:01;5.3;;;1.4;;
73421;SDS011;61637;47.760;-122.022;2023-07-20T06:04:01;5.8;;;1.5;;
73421;SDS011;61637;47.760;-122.022;2023-07-20T06:06:01;4.7;;;1.5;;
73421;SDS011;61637;47.760;-122.022;2023-07-20T06:08:01;7.7;;;1.4;;
73421;SDS011;61637;47.760;-122.022;2023-07-20T06:10:01;6.9;;;1.6;;
73421;SDS011;61637;47.760;-122.022;2023-07-20T06:12:01;5.7;;;1.6;;
73421;SDS011;61637;47.760;-122.022;2023-07-20T06:14:01;7.2;;;1.6;;
73421;SDS011;61637;47.760;-122.022;2023-07-20T06:16:01;7.1;;;1.6;;
73421;SDS011;61637;47.760;-122.022;2023-07-20T06:18:01;7.0;;;1.6;;
73421;SDS011;61637;47.760;-122.022;2023-07-20T06:20:00;6.8;;;1.5;;
73421;SDS011;61637;47.760;-122.022;2023-07-20T06:22:01;5.8;;;1.5;;
73421;SDS011;61637;47.760;-122.022;2023-07-20T06:24:01;5.6;;;1.6;;
73421;SDS011;61637;47.760;-122.022;2023-07-20T06:26:01;5.6;;;1.3;;
73421;SDS011;61637;47.760;-122.022;2023-07-20T06:28:01;5.8;;;1.5;;
73421;SDS011;61637;47.760;-122.022;2023-07-20T06:30:01;6.7;;;1.5;;
73421;SDS011;61637;47.760;-122.022;2023-07-20T06:32:01;6.6;;;1.5;;
73421;SDS011;61637;47.760;-122.022;2023-07-20T06:34:02;5.8;;;1.5;;
73421;SDS011;61637;47.760;-122.022;2023-07-20T06:36:01;5.6;;;1.5;;
73421;SDS011;61637;47.760;-122.022;2023-07-20T06:38:01;5.6;;;1.5;;
73421;SDS011;61637;47.760;-122.022;2023-07-20T06:40:02;6.4;;;1.5;;
73421;SDS011;61637;47.760;-122.022;2023-07-20T06:42:01;6.9;;;1.7;;
73421;SDS011;61637;47.760;-122.022;2023-07-20T06:44:01;6.0;;;1.6;;
73421;SDS011;61637;47.760;-122.022;2023-07-20T06:46:01;5.8;;;1.5;;
73421;SDS011;61637;47.760;-122.022;2023-07-20T06:48:01;5.5;;;1.5;;
73421;SDS011;61637;47.760;-122.022;2023-07-20T06:50:01;6.7;;;1.5;;
73421;SDS011;61637;47.760;-122.022;2023-07-20T06:52:01;6.5;;;1.6;;
73421;SDS011;61637;47.760;-122.022;2023-07-20T06:54:01;5.5;;;1.5;;
73421;SDS011;61637;47.760;-122.022;2023-07-20T06:56:01;4.9;;;1.5;;
73421;SDS011;61637;47.760;-122.022;2023-07-20T06:58:01;7.8;;;1.6;;
73421;SDS011;61637;47.760;-122.022;2023-07-20T07:00:01;5.1;;;1.4;;
73421;SDS011;61637;47.760;-122.022;2023-07-20T07:02:01;6.1;;;1.5;;
73421;SDS011;61637;47.760;-122.022;2023-07-20T07:04:01;5.7;;;1.5;;
73421;SDS011;61637;47.760;-122.022;2023-07-20T07:06:00;6.2;;;1.5;;
73421;SDS011;61637;47.760;-122.022;2023-07-20T07:08:00;5.9;;;1.6;;
73421;SDS011;61637;47.760;-122.022;2023-07-20T07:10:02;5.9;;;1.4;;
73421;SDS011;61637;47.760;-122.022;2023-07-20T07:12:01;8.6;;;1.6;;
73421;SDS011;61637;47.760;-122.022;2023-07-20T07:14:01;8.3;;;1.6;;
73421;SDS011;61637;47.760;-122.022;2023-07-20T07:16:01;5.7;;;1.5;;
73421;SDS011;61637;47.760;-122.022;2023-07-20T07:18:01;8.9;;;1.8;;
73421;SDS011;61637;47.760;-122.022;2023-07-20T07:20:01;5.5;;;1.6;;
73421;SDS011;61637;47.760;-122.022;2023-07-20T07:22:01;6.8;;;1.5;;
73421;SDS011;61637;47.760;-122.022;2023-07-20T07:24:01;7.0;;;1.6;;
73421;SDS011;61637;47.760;-122.022;2023-07-20T07:26:01;6.8;;;1.5;;
73421;SDS011;61637;47.760;-122.022;2023-07-20T07:28:01;7.9;;;1.6;;
73421;SDS011;61637;47.760;-122.022;2023-07-20T07:30:01;8.7;;;1.7;;
73421;SDS011;61637;47.760;-122.022;2023-07-20T07:32:01;4.7;;;1.3;;
73421;SDS011;61637;47.760;-122.022;2023-07-20T07:34:01;8.0;;;1.5;;
73421;SDS011;61637;47.760;-122.022;2023-07-20T07:36:01;7.6;;;1.6;;
73421;SDS011;61637;47.760;-122.022;2023-07-20T07:38:01;11.9;;;1.7;;
73421;SDS011;61637;47.760;-122.022;2023-07-20T07:40:01;6.9;;;1.6;;
73421;SDS011;61637;47.760;-122.022;2023-07-20T07:42:01;7.0;;;1.4;;
73421;SDS011;61637;47.760;-122.022;2023-07-20T07:44:01;9.0;;;1.7;;
73421;SDS011;61637;47.760;-122.022;2023-07-20T07:46:01;9.6;;;1.7;;
73421;SDS011;61637;47.760;-122.022;2023-07-20T07:48:01;7.4;;;1.7;;
73421;SDS011;61637;47.760;-122.022;2023-07-20T07:50:01;6.0;;;1.7;;
73421;SDS011;61637;47.760;-122.022;2023-07-20T07:52:01;7.6;;;1.6;;
73421;SDS011;61637;47.760;-122.022;2023-07-20T07:54:01;6.7;;;1.9;;
73421;SDS011;61637;47.760;-122.022;2023-07-20T07:56:01;8.5;;;1.8;;
73421;SDS011;61637;47.760;-122.022;2023-07-20T07:58:01;6.8;;;1.6;;
73421;SDS011;61637;47.760;-122.022;2023-07-20T08:00:01;9.1;;;1.6;;
73421;SDS011;61637;47.760;-122.022;2023-07-20T08:02:01;6.6;;;1.6;;
73421;SDS011;61637;47.760;-122.022;2023-07-20T08:04:01;11.0;;;1.9;;
73421;SDS011;61637;47.760;-122.022;2023-07-20T08:06:01;9.9;;;1.8;;
73421;SDS011;61637;47.760;-122.022;2023-07-20T08:08:01;7.8;;;1.6;;
73421;SDS011;61637;47.760;-122.022;2023-07-20T08:10:01;6.2;;;1.7;;
73421;SDS011;61637;47.760;-122.022;2023-07-20T08:12:00;6.6;;;1.9;;
73421;SDS011;61637;47.760;-122.022;2023-07-20T08:14:01;5.7;;;1.8;;
73421;SDS011;61637;47.760;-122.022;2023-07-20T08:16:02;6.5;;;1.7;;
73421;SDS011;61637;47.760;-122.022;2023-07-20T08:18:01;7.8;;;2.0;;
73421;SDS011;61637;47.760;-122.022;2023-07-20T08:20:01;5.4;;;1.8;;
73421;SDS011;61637;47.760;-122.022;2023-07-20T08:22:01;5.8;;;1.7;;
73421;SDS011;61637;47.760;-122.022;2023-07-20T08:24:01;5.8;;;1.9;;
73421;SDS011;61637;47.760;-122.022;2023-07-20T08:26:01;6.1;;;1.8;;
73421;SDS011;61637;47.760;-122.022;2023-07-20T08:28:01;5.3;;;1.8;;
73421;SDS011;61637;47.760;-122.022;2023-07-20T08:30:01;7.4;;;1.8;;
73421;SDS011;61637;47.760;-122.022;2023-07-20T08:32:01;9.6;;;2.1;;
73421;SDS011;61637;47.760;-122.022;2023-07-20T08:34:01;5.6;;;1.9;;
73421;SDS011;61637;47.760;-122.022;2023-07-20T08:36:01;8.4;;;1.7;;
73421;SDS011;61637;47.760;-122.022;2023-07-20T08:38:01;6.1;;;1.7;;
73421;SDS011;61637;47.760;-122.022;2023-07-20T08:40:01;6.4;;;1.7;;
73421;SDS011;61637;47.760;-122.022;2023-07-20T08:42:01;7.8;;;1.8;;
73421;SDS011;61637;47.760;-122.022;2023-07-20T08:44:01;7.8;;;1.9;;
73421;SDS011;61637;47.760;-122.022;2023-07-20T08:46:02;5.6;;;1.9;;
73421;SDS011;61637;47.760;-122.022;2023-07-20T08:48:01;10.5;;;1.9;;
73421;SDS011;61637;47.760;-122.022;2023-07-20T08:50:02;8.0;;;1.8;;
73421;SDS011;61637;47.760;-122.022;2023-07-20T08:52:01;7.5;;;1.9;;
73421;SDS011;61637;47.760;-122.022;2023-07-20T08:54:02;6.7;;;2.1;;
73421;SDS011;61637;47.760;-122.022;2023-07-20T08:56:02;8.3;;;1.9;;
73421;SDS011;61637;47.760;-122.022;2023-07-20T08:58:02;7.3;;;1.9;;
73421;SDS011;61637;47.760;-122.022;2023-07-20T09:00:03;9.7;;;2.0;;
73421;SDS011;61637;47.760;-122.022;2023-07-20T09:02:02;10.4;;;2.0;;
73421;SDS011;61637;47.760;-122.022;2023-07-20T09:04:01;12.5;;;2.0;;
73421;SDS011;61637;47.760;-122.022;2023-07-20T09:06:01;13.9;;;2.1;;
73421;SDS011;61637;47.760;-122.022;2023-07-20T09:08:01;7.5;;;2.0;;
73421;SDS011;61637;47.760;-122.022;2023-07-20T09:10:01;8.7;;;1.9;;
73421;SDS011;61637;47.760;-122.022;2023-07-20T09:12:01;10.0;;;2.1;;
73421;SDS011;61637;47.760;-122.022;2023-07-20T09:14:05;10.8;;;2.2;;
73421;SDS011;61637;47.760;-122.022;2023-07-20T09:16:01;10.4;;;1.9;;
73421;SDS011;61637;47.760;-122.022;2023-07-20T09:18:02;11.3;;;2.1;;
73421;SDS011;61637;47.760;-122.022;2023-07-20T09:20:03;9.0;;;2.0;;
73421;SDS011;61637;47.760;-122.022;2023-07-20T09:22:01;6.9;;;1.8;;
73421;SDS011;61637;47.760;-122.022;2023-07-20T09:24:01;11.0;;;2.3;;
73421;SDS011;61637;47.760;-122.022;2023-07-20T09:26:01;11.0;;;2.3;;
73421;SDS011;61637;47.760;-122.022;2023-07-20T09:28:02;10.1;;;1.9;;
73421;SDS011;61637;47.760;-122.022;2023-07-20T09:30:01;10.1;;;1.9;;
73421;SDS011;61637;47.760;-122.022;2023-07-20T09:32:02;5.7;;;2.1;;
73421;SDS011;61637;47.760;-122.022;2023-07-20T09:34:01;6.8;;;2.1;;
73421;SDS011;61637;47.760;-122.022;2023-07-20T09:36:02;10.7;;;2.0;;
73421;SDS011;61637;47.760;-122.022;2023-07-20T09:38:01;7.9;;;2.5;;
73421;SDS011;61637;47.760;-122.022;2023-07-20T09:40:01;11.1;;;2.3;;
73421;SDS011;61637;47.760;-122.022;2023-07-20T09:42:01;8.7;;;2.9;;
73421;SDS011;61637;47.760;-122.022;2023-07-20T09:44:01;13.2;;;2.5;;
73421;SDS011;61637;47.760;-122.022;2023-07-20T09:46:01;9.4;;;2.3;;
73421;SDS011;61637;47.760;-122.022;2023-07-20T09:48:05;10.0;;;2.5;;
73421;SDS011;61637;47.760;-122.022;2023-07-20T09:50:01;7.1;;;2.7;;
73421;SDS011;61637;47.760;-122.022;2023-07-20T09:52:01;11.9;;;2.7;;
73421;SDS011;61637;47.760;-122.022;2023-07-20T09:54:02;12.5;;;2.3;;
73421;SDS011;61637;47.760;-122.022;2023-07-20T09:56:02;12.0;;;2.5;;
73421;SDS011;61637;47.760;-122.022;2023-07-20T09:58:02;8.1;;;2.4;;
73421;SDS011;61637;47.760;-122.022;2023-07-20T10:00:02;10.3;;;3.2;;
73421;SDS011;61637;47.760;-122.022;2023-07-20T10:02:02;9.5;;;3.7;;
73421;SDS011;61637;47.760;-122.022;2023-07-20T10:04:03;12.4;;;3.6;;
73421;SDS011;61637;47.760;-122.022;2023-07-20T10:06:04;11.5;;;4.9;;
73421;SDS011;61637;47.760;-122.022;2023-07-20T10:08:02;11.1;;;5.0;;
73421;SDS011;61637;47.760;-122.022;2023-07-20T10:10:02;15.6;;;6.1;;
73421;SDS011;61637;47.760;-122.022;2023-07-20T10:12:01;13.5;;;7.3;;
73421;SDS011;61637;47.760;-122.022;2023-07-20T10:14:03;13.6;;;5.9;;
73421;SDS011;61637;47.760;-122.022;2023-07-20T10:16:06;12.3;;;6.5;;
73421;SDS011;61637;47.760;-122.022;2023-07-20T10:18:18;12.9;;;6.4;;
73421;SDS011;61637;47.760;-122.022;2023-07-20T10:20:02;11.7;;;7.2;;
73421;SDS011;61637;47.760;-122.022;2023-07-20T10:22:07;11.1;;;5.8;;
73421;SDS011;61637;47.760;-122.022;2023-07-20T10:24:01;12.2;;;6.2;;
73421;SDS011;61637;47.760;-122.022;2023-07-20T10:26:02;13.5;;;6.7;;
73421;SDS011;61637;47.760;-122.022;2023-07-20T10:28:01;13.6;;;6.9;;
73421;SDS011;61637;47.760;-122.022;2023-07-20T10:30:01;12.0;;;5.9;;
73421;SDS011;61637;47.760;-122.022;2023-07-20T10:32:01;15.8;;;8.7;;
73421;SDS011;61637;47.760;-122.022;2023-07-20T10:34:01;19.2;;;11.6;;
73421;SDS011;61637;47.760;-122.022;2023-07-20T10:36:03;21.4;;;13.7;;
73421;SDS011;61637;47.760;-122.022;2023-07-20T10:38:02;20.9;;;13.3;;
73421;SDS011;61637;47.760;-122.022;2023-07-20T10:42:01;24.6;;;14.4;;
73421;SDS011;61637;47.760;-122.022;2023-07-20T10:44:02;26.3;;;16.8;;
73421;SDS011;61637;47.760;-122.022;2023-07-20T10:46:01;25.5;;;16.1;;
73421;SDS011;61637;47.760;-122.022;2023-07-20T10:48:04;23.4;;;15.3;;
73421;SDS011;61637;47.760;-122.022;2023-07-20T10:50:01;22.4;;;14.5;;
73421;SDS011;61637;47.760;-122.022;2023-07-20T10:52:05;21.4;;;14.9;;
73421;SDS011;61637;47.760;-122.022;2023-07-20T10:54:02;23.4;;;15.6;;
73421;SDS011;61637;47.760;-122.022;2023-07-20T10:56:11;23.4;;;14.8;;
73421;SDS011;61637;47.760;-122.022;2023-07-20T10:58:09;23.9;;;15.7;;
73421;SDS011;61637;47.760;-122.022;2023-07-20T11:00:11;25.3;;;15.3;;
73421;SDS011;61637;47.760;-122.022;2023-07-20T11:02:07;24.4;;;15.6;;
73421;SDS011;61637;47.760;-122.022;2023-07-20T11:04:01;23.7;;;14.6;;
73421;SDS011;61637;47.760;-122.022;2023-07-20T11:08:04;22.6;;;14.3;;
73421;SDS011;61637;47.760;-122.022;2023-07-20T11:10:13;21.0;;;14.2;;
73421;SDS011;61637;47.760;-122.022;2023-07-20T11:12:10;20.8;;;13.3;;
73421;SDS011;61637;47.760;-122.022;2023-07-20T11:14:03;18.2;;;12.2;;
73421;SDS011;61637;47.760;-122.022;2023-07-20T11:16:03;18.6;;;10.2;;
73421;SDS011;61637;47.760;-122.022;2023-07-20T11:18:12;17.3;;;10.0;;
73421;SDS011;61637;47.760;-122.022;2023-07-20T11:20:02;14.2;;;8.7;;
73421;SDS011;61637;47.760;-122.022;2023-07-20T11:22:04;13.3;;;5.6;;
73421;SDS011;61637;47.760;-122.022;2023-07-20T11:24:03;9.7;;;5.2;;
73421;SDS011;61637;47.760;-122.022;2023-07-20T11:26:01;15.3;;;5.7;;
73421;SDS011;61637;47.760;-122.022;2023-07-20T11:28:01;11.7;;;5.0;;
73421;SDS011;61637;47.760;-122.022;2023-07-20T11:30:00;11.9;;;6.3;;
73421;SDS011;61637;47.760;-122.022;2023-07-20T11:32:01;11.7;;;6.0;;
73421;SDS011;61637;47.760;-122.022;2023-07-20T11:34:01;11.4;;;5.7;;
73421;SDS011;61637;47.760;-122.022;2023-07-20T11:36:01;12.2;;;5.7;;
73421;SDS011;61637;47.760;-122.022;2023-07-20T11:38:01;12.5;;;5.6;;
73421;SDS011;61637;47.760;-122.022;2023-07-20T11:40:01;12.8;;;5.9;;
73421;SDS011;61637;47.760;-122.022;2023-07-20T11:42:00;8.8;;;5.1;;
73421;SDS011;61637;47.760;-122.022;2023-07-20T11:44:01;8.3;;;4.1;;
73421;SDS011;61637;47.760;-122.022;2023-07-20T11:46:01;9.7;;;4.1;;
73421;SDS011;61637;47.760;-122.022;2023-07-20T11:48:00;8.3;;;3.8;;
73421;SDS011;61637;47.760;-122.022;2023-07-20T11:50:04;7.9;;;3.3;;
73421;SDS011;61637;47.760;-122.022;2023-07-20T11:52:01;8.3;;;3.1;;
73421;SDS011;61637;47.760;-122.022;2023-07-20T11:54:02;8.3;;;2.8;;